createdAt,value
2022-08-19T00:00:28.532Z,101368.97
2022-08-19T00:02:56.558Z,101365.53
2022-08-19T00:05:24.640Z,101329.13
2022-08-19T00:07:52.641Z,101365.44
2022-08-19T00:10:20.850Z,101361.72
2022-08-19T00:12:48.893Z,101357.31
2022-08-19T00:15:19.824Z,101358.91
2022-08-19T00:17:47.837Z,101358.06
2022-08-19T00:20:18.909Z,101356.19
2022-08-19T00:22:47.079Z,101361.59
2022-08-19T00:25:15.202Z,101370.59
2022-08-19T00:27:43.830Z,101367.16
2022-08-19T00:30:13.168Z,101363.69
2022-08-19T00:32:42.554Z,101375.38
2022-08-19T00:35:11.677Z,101380.88
2022-08-19T00:37:44.137Z,101383.59
2022-08-19T00:40:13.908Z,101387.44
2022-08-19T00:42:41.984Z,101382.13
2022-08-19T00:45:15.221Z,101384.81
2022-08-19T00:47:44.774Z,101381.38
2022-08-19T00:50:13.260Z,101387.78
2022-08-19T00:52:46.550Z,101385.16
2022-08-19T00:55:15.912Z,101383.69
2022-08-19T00:57:46.321Z,101390.94
2022-08-19T01:00:15.747Z,101379.38
2022-08-19T01:02:45.173Z,101376.94
2022-08-19T01:05:16.003Z,101373.84
2022-08-19T01:07:44.866Z,101372.69
2022-08-19T01:10:14.676Z,101363.78
2022-08-19T01:12:42.822Z,101369.47
2022-08-19T01:15:12.444Z,101361.03
2022-08-19T01:17:41.068Z,101362.09
2022-08-19T01:20:11.897Z,101367.03
2022-08-19T01:22:43.764Z,101359.88
2022-08-19T01:25:15.041Z,101366.03
2022-08-19T01:27:44.429Z,101371.56
2022-08-19T01:30:14.626Z,101371.78
2022-08-19T01:32:42.928Z,101381.22
2022-08-19T01:35:11.093Z,101382.28
2022-08-19T01:37:48.100Z,101379.81
2022-08-19T01:40:16.485Z,101384.59
2022-08-19T01:42:44.559Z,101372.41
2022-08-19T01:45:12.860Z,101389.59
2022-08-19T01:47:40.886Z,101384.28
2022-08-19T01:50:09.762Z,101388.84
2022-08-19T01:52:37.988Z,101392.38
2022-08-19T01:55:10.449Z,101383.31
2022-08-19T01:57:38.545Z,101390.97
2022-08-19T02:00:07.700Z,101370.78
2022-08-19T02:02:35.811Z,101377.13
2022-08-19T02:05:03.810Z,101372.59
2022-08-19T02:07:31.840Z,101378.59
2022-08-19T02:09:59.821Z,101379.47
2022-08-19T02:12:32.468Z,101373.84
2022-08-19T02:15:02.035Z,101375.47
2022-08-19T02:17:30.116Z,101379.88
2022-08-19T02:19:58.189Z,101377.91
2022-08-19T02:22:26.513Z,101371.56
2022-08-19T02:24:54.488Z,101369.59
2022-08-19T02:27:22.484Z,101375.88
2022-08-19T02:29:52.069Z,101369.59
2022-08-19T02:32:20.540Z,101381.34
2022-08-19T02:34:48.798Z,101377.91
2022-08-19T02:37:30.568Z,101383.44
2022-08-19T02:40:03.374Z,101385.28
2022-08-19T02:42:41.770Z,101398.78
2022-08-19T02:45:12.048Z,101397.94
2022-08-19T02:47:40.068Z,101394.59
2022-08-19T02:50:08.537Z,101395.66
2022-08-19T02:52:36.630Z,101400.78
2022-08-19T02:55:04.908Z,101404.69
2022-08-19T02:57:33.522Z,101409.44
2022-08-19T03:00:02.416Z,101404.38
2022-08-19T03:02:31.816Z,101408.16
2022-08-19T03:04:59.800Z,101405.94
2022-08-19T03:07:27.848Z,101404.78
2022-08-19T03:09:55.823Z,101408.13
2022-08-19T03:12:23.897Z,101414.03
2022-08-19T03:14:52.081Z,101418.91
2022-08-19T03:17:20.052Z,101412.78
2022-08-19T03:19:49.411Z,101413.72
2022-08-19T03:22:17.429Z,101418.16
2022-08-19T03:24:45.373Z,101413.63
2022-08-19T03:27:13.388Z,101415.34
2022-08-19T03:29:43.851Z,101409.63
2022-08-19T03:32:27.235Z,101410.94
2022-08-19T03:35:01.679Z,101420.34
2022-08-19T03:37:29.695Z,101420.97
2022-08-19T03:39:57.697Z,101425.59
2022-08-19T03:42:32.110Z,101420.88
2022-08-19T03:45:01.719Z,101425.06
2022-08-19T03:47:29.692Z,101421.19
2022-08-19T03:49:57.743Z,101423.69
2022-08-19T03:52:27.124Z,101427.78
2022-08-19T03:54:55.132Z,101426.28
2022-08-19T03:57:24.422Z,101429.16
2022-08-19T03:59:55.865Z,101441.81
2022-08-19T04:02:40.615Z,101450.75
2022-08-19T04:05:09.623Z,101448.91
2022-08-19T04:07:39.194Z,101448.72
2022-08-19T04:10:07.669Z,101448.91
2022-08-19T04:12:38.913Z,101448.38
2022-08-19T04:15:08.866Z,101444.28
2022-08-19T04:17:36.870Z,101438.44
2022-08-19T04:20:07.019Z,101447.19
2022-08-19T04:22:35.245Z,101454.81
2022-08-19T04:25:04.834Z,101459.84
2022-08-19T04:27:34.400Z,101455.16
2022-08-19T04:30:02.385Z,101465.59
2022-08-19T04:32:32.917Z,101463.41
2022-08-19T04:35:02.590Z,101463.94
2022-08-19T04:37:44.581Z,101470.69
2022-08-19T04:40:31.697Z,101459.53
2022-08-19T04:42:59.698Z,101463.81
2022-08-19T04:45:27.736Z,101474.13
2022-08-19T04:48:26.894Z,101483.56
2022-08-19T04:50:46.318Z,101490.28
2022-08-19T04:53:14.265Z,101483.66
2022-08-19T04:55:44.483Z,101486.63
2022-08-19T04:58:12.541Z,101487.91
2022-08-19T05:00:41.580Z,101484.75
2022-08-19T05:03:09.685Z,101488.66
2022-08-19T05:05:44.583Z,101487.03
2022-08-19T05:08:14.208Z,101440.56
2022-08-19T05:10:45.574Z,101483.00
2022-08-19T05:13:13.611Z,101480.50
2022-08-19T05:15:41.653Z,101490.50
2022-08-19T05:18:26.724Z,101488.88
2022-08-19T05:21:12.469Z,101484.81
2022-08-19T05:23:40.476Z,101483.19
2022-08-19T05:26:12.017Z,101493.06
2022-08-19T05:28:39.975Z,101485.97
2022-08-19T05:31:08.157Z,101492.31
2022-08-19T05:33:36.365Z,101497.69
2022-08-19T05:36:05.553Z,101509.41
2022-08-19T05:38:33.521Z,101506.72
2022-08-19T05:41:01.499Z,101505.84
2022-08-19T05:43:30.940Z,101511.22
2022-08-19T05:45:59.331Z,101519.19
2022-08-19T05:48:27.536Z,101518.31
2022-08-19T05:50:55.588Z,101519.19
2022-08-19T05:53:23.543Z,101516.72
2022-08-19T05:55:51.528Z,101514.66
2022-08-19T05:58:19.550Z,101523.41
2022-08-19T06:00:53.493Z,101519.78
2022-08-19T06:03:21.514Z,101526.69
2022-08-19T06:05:52.050Z,101532.88
2022-08-19T06:08:33.820Z,101532.63
2022-08-19T06:11:14.669Z,101538.69
2022-08-19T06:13:42.721Z,101537.69
2022-08-19T06:16:12.123Z,101529.22
2022-08-19T06:18:40.205Z,101527.16
2022-08-19T06:21:08.242Z,101527.16
2022-08-19T06:23:36.615Z,101526.22
2022-08-19T06:26:05.256Z,101529.31
2022-08-19T06:28:33.973Z,101533.41
2022-08-19T06:31:07.368Z,101537.50
2022-08-19T06:33:36.779Z,101540.50
2022-08-19T06:36:05.305Z,101540.72
2022-08-19T06:38:34.358Z,101550.75
2022-08-19T06:41:07.437Z,101548.06
2022-08-19T06:43:37.140Z,101552.38
2022-08-19T06:46:14.577Z,101550.91
2022-08-19T06:48:45.138Z,101553.03
2022-08-19T06:51:16.672Z,101538.38
2022-08-19T06:53:47.552Z,101560.41
2022-08-19T06:56:16.193Z,101565.41
2022-08-19T06:58:44.175Z,101555.59
2022-08-19T07:01:12.232Z,101554.00
2022-08-19T07:03:40.782Z,101555.44
2022-08-19T07:06:26.596Z,101563.13
2022-08-19T07:09:00.270Z,101556.63
2022-08-19T07:11:28.873Z,101561.81
2022-08-19T07:13:57.737Z,101560.06
2022-08-19T07:16:29.441Z,101572.78
2022-08-19T07:18:58.181Z,101577.78
2022-08-19T07:21:29.466Z,101576.78
2022-08-19T07:23:58.075Z,101579.47
2022-08-19T07:26:27.992Z,101583.16
2022-08-19T07:28:56.504Z,101586.09
2022-08-19T07:31:25.325Z,101593.44
2022-08-19T07:33:56.267Z,101588.66
2022-08-19T07:36:29.669Z,101589.53
2022-08-19T07:38:57.685Z,101593.84
2022-08-19T07:41:27.348Z,101594.53
2022-08-19T07:43:55.418Z,101600.38
2022-08-19T07:46:23.508Z,101598.28
2022-08-19T07:48:51.664Z,101595.25
2022-08-19T07:51:35.992Z,101595.78
2022-08-19T07:54:06.229Z,101605.69
2022-08-19T07:56:34.201Z,101613.00
2022-08-19T07:59:02.337Z,101610.69
2022-08-19T08:01:30.510Z,101616.59
2022-08-19T08:04:16.127Z,101631.06
2022-08-19T08:07:02.233Z,101633.19
2022-08-19T08:09:35.153Z,101627.31
2022-08-19T08:12:30.725Z,101633.75
2022-08-19T08:14:58.176Z,101638.69
2022-08-19T08:17:31.163Z,101636.38
2022-08-19T08:20:16.345Z,101638.59
2022-08-19T08:23:03.259Z,101635.91
2022-08-19T08:25:34.342Z,101641.09
2022-08-19T08:28:03.558Z,101646.66
2022-08-19T08:30:33.408Z,101643.13
2022-08-19T08:33:02.654Z,101656.66
2022-08-19T08:35:30.820Z,101649.06
2022-08-19T08:37:59.001Z,101660.53
2022-08-19T08:40:30.277Z,101653.88
2022-08-19T08:45:42.504Z,101658.44
2022-08-19T08:48:23.892Z,101651.69
2022-08-19T08:50:53.643Z,101653.03
2022-08-19T08:53:29.108Z,101653.44
2022-08-19T08:55:57.948Z,101661.81
2022-08-19T08:58:30.290Z,101661.81
2022-08-19T09:00:59.482Z,101659.22
2022-08-19T09:03:28.348Z,101670.28
2022-08-19T09:06:03.185Z,101654.41
2022-08-19T09:08:38.241Z,101661.94
2022-08-19T09:11:09.291Z,101667.22
2022-08-19T09:13:44.140Z,101669.44
2022-08-19T09:16:15.101Z,101658.38
2022-08-19T09:18:44.041Z,101655.53
2022-08-19T09:21:12.125Z,101663.66
2022-08-19T09:23:40.193Z,101667.75
2022-08-19T09:26:14.548Z,101657.75
2022-08-19T09:28:48.329Z,101655.03
2022-08-19T09:31:19.187Z,101673.41
2022-08-19T09:33:47.268Z,101672.16
2022-08-19T09:36:21.782Z,101669.06
2022-08-19T09:38:59.237Z,101667.94
2022-08-19T09:41:28.737Z,101665.72
2022-08-19T09:43:59.710Z,101663.88
2022-08-19T09:46:29.008Z,101662.66
2022-08-19T09:48:59.452Z,101665.03
2022-08-19T09:51:35.044Z,101653.09
2022-08-19T09:54:04.530Z,101668.69
2022-08-19T09:56:33.974Z,101666.28
2022-08-19T09:59:04.382Z,101660.97
2022-08-19T10:01:33.754Z,101655.56
2022-08-19T10:04:06.382Z,101652.66
2022-08-19T10:06:46.419Z,101651.34
2022-08-19T10:09:14.997Z,101661.00
2022-08-19T10:11:51.157Z,101668.19
2022-08-19T10:14:24.734Z,101670.81
2022-08-19T10:16:53.123Z,101674.75
2022-08-19T10:19:25.290Z,101669.09
2022-08-19T10:21:54.219Z,101671.84
2022-08-19T10:24:25.333Z,101672.97
2022-08-19T10:26:57.033Z,101673.84
2022-08-19T10:29:32.832Z,101682.50
2022-08-19T10:32:02.807Z,101680.28
2022-08-19T10:34:31.582Z,101685.84
2022-08-19T10:37:01.868Z,101686.69
2022-08-19T10:39:31.435Z,101689.66
2022-08-19T10:42:00.865Z,101691.63
2022-08-19T10:44:32.090Z,101700.28
2022-08-19T10:47:00.999Z,101696.66
2022-08-19T10:49:29.201Z,101689.97
2022-08-19T10:52:18.580Z,101687.16
2022-08-19T10:55:08.253Z,101646.94
2022-08-19T10:57:59.483Z,101697.31
2022-08-19T11:00:26.781Z,101690.28
2022-08-19T11:02:54.797Z,101698.34
2022-08-19T11:05:24.184Z,101695.03
2022-08-19T11:07:53.024Z,101691.78
2022-08-19T11:10:22.015Z,101699.69
2022-08-19T11:12:55.115Z,101700.69
2022-08-19T11:15:23.290Z,101705.47
2022-08-19T11:17:55.246Z,101694.84
2022-08-19T11:20:24.624Z,101699.41
2022-08-19T11:22:53.719Z,101694.88
2022-08-19T11:25:21.874Z,101706.56
2022-08-19T11:27:52.091Z,101709.91
2022-08-19T11:30:20.243Z,101699.06
2022-08-19T11:32:49.642Z,101693.09
2022-08-19T11:35:21.051Z,101706.41
2022-08-19T11:37:49.130Z,101699.13
2022-08-19T11:40:17.412Z,101700.53
2022-08-19T11:42:57.714Z,101707.91
2022-08-19T11:45:25.922Z,101704.03
2022-08-19T11:47:54.200Z,101709.94
2022-08-19T11:50:24.573Z,101710.09
2022-08-19T11:52:52.666Z,101721.19
2022-08-19T11:55:20.905Z,101722.81
2022-08-19T11:57:48.958Z,101717.66
2022-08-19T12:00:17.488Z,101720.16
2022-08-19T12:02:45.606Z,101716.94
2022-08-19T12:05:13.732Z,101708.53
2022-08-19T12:07:44.693Z,101714.97
2022-08-19T12:10:12.975Z,101718.91
2022-08-19T12:12:43.436Z,101708.41
2022-08-19T12:15:13.165Z,101721.84
2022-08-19T12:17:41.232Z,101702.25
2022-08-19T12:20:11.370Z,101708.88
2022-08-19T12:22:40.324Z,101713.34
2022-08-19T12:25:10.504Z,101709.72
2022-08-19T12:27:40.730Z,101716.59
2022-08-19T12:30:11.909Z,101716.84
2022-08-19T12:32:40.120Z,101722.03
2022-08-19T12:35:09.093Z,101719.78
2022-08-19T12:37:37.282Z,101721.53
2022-08-19T12:40:06.339Z,101720.09
2022-08-19T12:42:37.036Z,101722.69
2022-08-19T12:45:06.507Z,101722.94
2022-08-19T12:47:34.669Z,101720.91
2022-08-19T12:50:07.027Z,101728.97
2022-08-19T12:52:35.086Z,101729.84
2022-08-19T12:55:03.153Z,101732.84
2022-08-19T12:57:33.895Z,101727.41
2022-08-19T13:00:07.117Z,101733.75
2022-08-19T13:02:38.840Z,101726.00
2022-08-19T13:05:09.349Z,101708.34
2022-08-19T13:07:38.260Z,101729.56
2022-08-19T13:10:07.713Z,101732.16
2022-08-19T13:12:35.890Z,101721.09
2022-08-19T13:15:10.998Z,101729.72
2022-08-19T13:17:39.730Z,101738.13
2022-08-19T13:20:09.016Z,101729.22
2022-08-19T13:22:37.440Z,101740.00
2022-08-19T13:25:06.378Z,101731.50
2022-08-19T13:27:34.531Z,101731.50
2022-08-19T13:30:20.193Z,101731.94
2022-08-19T13:33:07.020Z,101735.25
2022-08-19T13:35:35.048Z,101733.69
2022-08-19T13:38:11.963Z,101746.91
2022-08-19T13:40:41.320Z,101734.44
2022-08-19T13:43:17.597Z,101734.84
2022-08-19T13:45:51.540Z,101737.72
2022-08-19T13:48:20.931Z,101721.50
2022-08-19T13:50:49.197Z,101738.84
2022-08-19T13:53:17.348Z,101746.03
2022-08-19T13:55:45.833Z,101728.56
2022-08-19T13:58:14.424Z,101740.63
2022-08-19T14:00:43.390Z,101736.41
2022-08-19T14:03:11.439Z,101736.31
2022-08-19T14:05:40.791Z,101737.88
2022-08-19T14:08:08.869Z,101736.34
2022-08-19T14:10:36.881Z,101737.63
2022-08-19T14:13:05.629Z,101740.88
2022-08-19T14:15:33.763Z,101735.09
2022-08-19T14:18:02.015Z,101735.69
2022-08-19T14:20:30.030Z,101734.47
2022-08-19T14:23:00.435Z,101742.13
2022-08-19T14:25:29.924Z,101741.91
2022-08-19T14:27:57.924Z,101734.88
2022-08-19T14:30:28.657Z,101740.66
2022-08-19T14:32:56.963Z,101736.41
2022-08-19T14:35:25.086Z,101739.69
2022-08-19T14:37:56.435Z,101736.22
2022-08-19T14:40:28.261Z,101742.81
2022-08-19T14:43:00.424Z,101736.25
2022-08-19T14:45:28.723Z,101741.63
2022-08-19T14:47:56.821Z,101739.72
2022-08-19T14:50:24.857Z,101730.91
2022-08-19T14:53:00.774Z,101733.38
2022-08-19T14:55:30.171Z,101729.34
2022-08-19T14:57:58.333Z,101736.94
2022-08-19T15:00:27.950Z,101739.78
2022-08-19T15:02:56.560Z,101745.16
2022-08-19T15:05:24.682Z,101748.50
2022-08-19T15:07:52.763Z,101752.53
2022-08-19T15:10:20.949Z,101747.06
2022-08-19T15:12:51.877Z,101750.38
2022-08-19T15:15:20.135Z,101743.38
2022-08-19T15:17:48.549Z,101742.19
2022-08-19T15:20:17.590Z,101741.63
2022-08-19T15:22:45.600Z,101742.69
2022-08-19T15:25:15.137Z,101737.34
2022-08-19T15:27:43.689Z,101742.34
2022-08-19T15:30:13.989Z,101757.09
2022-08-19T15:32:44.252Z,101748.00
2022-08-19T15:35:15.346Z,101735.44
2022-08-19T15:37:43.355Z,101741.22
2022-08-19T15:40:12.360Z,101742.25
2022-08-19T15:42:42.540Z,101725.66
2022-08-19T15:45:13.104Z,101744.88
2022-08-19T15:47:41.112Z,101746.06
2022-08-19T15:50:10.533Z,101741.25
2022-08-19T15:52:49.220Z,101734.41
2022-08-19T15:55:32.699Z,101741.19
2022-08-19T15:58:20.555Z,101742.00
2022-08-19T16:01:16.314Z,101748.06
2022-08-19T16:04:03.111Z,101755.53
2022-08-19T16:06:31.880Z,101751.47
2022-08-19T16:09:01.987Z,101749.88
2022-08-19T16:11:32.364Z,101747.41
2022-08-19T16:14:00.971Z,101753.13
2022-08-19T16:16:33.823Z,101754.47
2022-08-19T16:19:03.867Z,101753.75
2022-08-19T16:21:33.482Z,101746.88
2022-08-19T16:24:02.168Z,101752.03
2022-08-19T16:26:31.600Z,101754.19
2022-08-19T16:28:59.863Z,101762.41
2022-08-19T16:31:28.004Z,101762.75
2022-08-19T16:33:57.474Z,101775.72
2022-08-19T16:36:25.624Z,101767.81
2022-08-19T16:38:54.570Z,101770.31
2022-08-19T16:41:23.110Z,101764.38
2022-08-19T16:43:54.606Z,101762.03
2022-08-19T16:46:22.789Z,101760.81
2022-08-19T16:48:51.014Z,101759.66
2022-08-19T16:51:20.404Z,101754.16
2022-08-19T16:53:49.075Z,101753.03
2022-08-19T16:56:17.115Z,101757.88
2022-08-19T16:58:45.073Z,101757.44
2022-08-19T17:01:13.807Z,101767.97
2022-08-19T17:03:41.825Z,101764.19
2022-08-19T17:06:15.925Z,101754.84
2022-08-19T17:08:50.102Z,101754.25
2022-08-19T17:11:19.345Z,101755.53
2022-08-19T17:13:48.323Z,101757.22
2022-08-19T17:16:16.859Z,101757.94
2022-08-19T17:18:44.951Z,101761.03
2022-08-19T17:21:13.528Z,101759.31
2022-08-19T17:23:43.578Z,101763.00
2022-08-19T17:26:16.931Z,101760.13
2022-08-19T17:28:47.289Z,101760.84
2022-08-19T17:31:15.473Z,101768.84
2022-08-19T17:33:48.161Z,101771.16
2022-08-19T17:36:17.457Z,101755.34
2022-08-19T17:38:45.818Z,101771.88
2022-08-19T17:41:15.275Z,101770.78
2022-08-19T17:43:44.273Z,101763.41
2022-08-19T17:46:17.859Z,101768.94
2022-08-19T17:48:51.933Z,101767.59
2022-08-19T17:51:22.349Z,101731.38
2022-08-19T17:53:51.502Z,101771.41
2022-08-19T17:56:20.884Z,101771.53
2022-08-19T17:58:59.580Z,101776.22
2022-08-19T18:01:31.452Z,101778.28
2022-08-19T18:04:12.182Z,101791.75
2022-08-19T18:06:41.757Z,101787.66
2022-08-19T18:09:14.949Z,101789.59
2022-08-19T18:11:44.893Z,101787.69
2022-08-19T18:14:20.548Z,101804.53
2022-08-19T18:16:48.509Z,101803.09
2022-08-19T18:19:16.485Z,101798.03
2022-08-19T18:21:44.528Z,101805.88
2022-08-19T18:24:12.689Z,101802.88
2022-08-19T18:26:40.712Z,101797.91
2022-08-19T18:29:10.104Z,101795.44
2022-08-19T18:31:38.687Z,101790.47
2022-08-19T18:34:10.044Z,101790.72
2022-08-19T18:36:53.557Z,101796.81
2022-08-19T18:39:39.254Z,101805.03
2022-08-19T18:42:32.660Z,101800.63
2022-08-19T18:45:19.526Z,101799.75
2022-08-19T18:48:04.801Z,101798.56
2022-08-19T18:50:32.891Z,101809.16
2022-08-19T18:53:01.804Z,101815.00
2022-08-19T18:55:29.947Z,101811.81
2022-08-19T18:57:57.891Z,101810.00
2022-08-19T19:00:27.343Z,101813.19
2022-08-19T19:02:55.688Z,101811.38
2022-08-19T19:05:24.411Z,101810.41
2022-08-19T19:07:53.175Z,101809.41
2022-08-19T19:10:21.417Z,101809.19
2022-08-19T19:12:50.315Z,101814.47
2022-08-19T19:15:18.885Z,101811.56
2022-08-19T19:17:48.344Z,101816.75
2022-08-19T19:20:16.542Z,101810.34
2022-08-19T19:22:44.527Z,101810.34
2022-08-19T19:25:12.517Z,101809.72
2022-08-19T19:27:40.983Z,101806.38
2022-08-19T19:30:09.878Z,101814.94
2022-08-19T19:32:39.157Z,101763.94
2022-08-19T19:35:10.645Z,101819.06
2022-08-19T19:37:38.789Z,101817.78
2022-08-19T19:40:07.559Z,101817.28
2022-08-19T19:42:35.600Z,101813.81
2022-08-19T19:45:03.934Z,101818.56
2022-08-19T19:47:31.927Z,101814.66
2022-08-19T19:50:16.162Z,101808.19
2022-08-19T19:52:46.757Z,101817.19
2022-08-19T19:55:18.095Z,101817.72
2022-08-19T19:57:46.511Z,101826.13
2022-08-19T20:00:16.961Z,101826.47
2022-08-19T20:02:49.266Z,101823.88
2022-08-19T20:05:21.229Z,101818.03
2022-08-19T20:08:08.248Z,101812.00
2022-08-19T20:10:36.596Z,101812.53
2022-08-19T20:13:04.922Z,101826.66
2022-08-19T20:15:33.205Z,101830.16
2022-08-19T20:18:02.381Z,101825.50
2022-08-19T20:20:31.612Z,101825.28
2022-08-19T20:23:01.169Z,101818.59
2022-08-19T20:25:29.156Z,101820.97
2022-08-19T20:27:57.406Z,101823.56
2022-08-19T20:30:25.656Z,101830.72
2022-08-19T20:32:56.558Z,101830.59
2022-08-19T20:35:24.702Z,101830.38
2022-08-19T20:37:57.997Z,101828.63
2022-08-19T20:40:27.775Z,101833.84
2022-08-19T20:42:56.460Z,101836.31
2022-08-19T20:45:33.623Z,101833.59
2022-08-19T20:48:03.266Z,101840.63
2022-08-19T20:50:31.770Z,101842.25
2022-08-19T20:53:00.690Z,101828.75
2022-08-19T20:55:30.593Z,101833.94
2022-08-19T20:57:58.735Z,101831.75
2022-08-19T21:00:26.793Z,101834.25
2022-08-19T21:02:54.796Z,101840.41
2022-08-19T21:05:26.169Z,101843.00
2022-08-19T21:07:56.707Z,101832.75
2022-08-19T21:10:26.124Z,101839.78
2022-08-19T21:12:55.478Z,101842.69
2022-08-19T21:15:24.621Z,101839.34
2022-08-19T21:17:52.663Z,101835.03
2022-08-19T21:20:20.878Z,101842.38
2022-08-19T21:22:48.856Z,101843.34
2022-08-19T21:25:16.960Z,101840.63
2022-08-19T21:27:44.978Z,101848.75
2022-08-19T21:30:15.209Z,101847.88
2022-08-19T21:32:43.354Z,101850.56
2022-08-19T21:35:11.388Z,101842.59
2022-08-19T21:37:39.428Z,101845.16
2022-08-19T21:40:08.462Z,101846.91
2022-08-19T21:42:37.759Z,101845.94
2022-08-19T21:45:06.788Z,101844.84
2022-08-19T21:47:36.207Z,101845.59
2022-08-19T21:50:04.441Z,101844.84
2022-08-19T21:52:32.515Z,101848.53
2022-08-19T21:55:00.524Z,101849.41
2022-08-19T21:57:28.468Z,101852.97
2022-08-19T21:59:56.466Z,101856.53
2022-08-19T22:02:24.515Z,101854.03
2022-08-19T22:04:53.942Z,101851.34
2022-08-19T22:07:22.540Z,101852.31
2022-08-19T22:09:51.552Z,101858.94
2022-08-19T22:12:24.289Z,101858.06
2022-08-19T22:14:52.597Z,101853.72
2022-08-19T22:17:20.943Z,101857.31
2022-08-19T22:19:49.059Z,101860.00
2022-08-19T22:22:24.121Z,101859.13
2022-08-19T22:24:52.333Z,101853.59
2022-08-19T22:27:20.552Z,101853.59
2022-08-19T22:29:52.387Z,101845.63
2022-08-19T22:32:28.106Z,101848.44
2022-08-19T22:34:58.897Z,101849.50
2022-08-19T22:37:28.891Z,101854.03
2022-08-19T22:39:56.948Z,101854.16
2022-08-19T22:42:25.371Z,101855.25
2022-08-19T22:44:59.905Z,101854.38
2022-08-19T22:47:30.180Z,101850.72
2022-08-19T22:50:02.143Z,101849.84
2022-08-19T22:52:31.614Z,101844.44
2022-08-19T22:55:01.168Z,101847.00
2022-08-19T22:57:29.586Z,101849.72
2022-08-19T22:59:58.790Z,101848.97
2022-08-19T23:02:31.371Z,101854.47
2022-08-19T23:05:02.182Z,101855.44
2022-08-19T23:07:31.628Z,101846.56
2022-08-19T23:09:59.616Z,101852.22
2022-08-19T23:12:28.893Z,101852.31
2022-08-19T23:14:56.913Z,101847.13
2022-08-19T23:17:24.913Z,101843.75
2022-08-19T23:19:53.517Z,101845.81
2022-08-19T23:22:24.949Z,101844.50
2022-08-19T23:24:55.911Z,101847.53
2022-08-19T23:27:41.753Z,101849.03
2022-08-19T23:30:29.599Z,101845.16
2022-08-19T23:32:58.269Z,101837.75
2022-08-19T23:35:26.483Z,101841.44
2022-08-19T23:37:54.684Z,101832.91
2022-08-19T23:40:24.253Z,101834.03
2022-08-19T23:42:52.239Z,101834.38
2022-08-19T23:45:23.842Z,101846.66
2022-08-19T23:47:53.423Z,101829.94
2022-08-19T23:50:21.776Z,101833.69
2022-08-19T23:52:51.147Z,101836.47
2022-08-19T23:55:19.135Z,101826.56
2022-08-19T23:57:48.613Z,101831.19
